sensor_id;sensor_type;location;lat;lon;timestamp;pressure;altitude;pressure_sealevel;temperature;humidity
69796;BME280;57073;45.650;9.612;2024-01-25T00:04:13;100003.22;;;4.39;56.37
69796;BME280;57073;45.650;9.612;2024-01-25T00:09:13;99991.13;;;4.28;56.47
69796;BME280;57073;45.650;9.612;2024-01-25T00:14:14;99994.13;;;4.25;56.01
69796;BME280;57073;45.650;9.612;2024-01-25T00:19:14;99987.97;;;4.47;55.25
69796;BME280;57073;45.650;9.612;2024-01-25T00:24:15;99993.59;;;4.53;54.19
69796;BME280;57073;45.650;9.612;2024-01-25T00:29:15;99999.81;;;4.45;54.71
69796;BME280;57073;45.650;9.612;2024-01-25T00:34:16;99990.69;;;4.77;54.22
69796;BME280;57073;45.650;9.612;2024-01-25T00:39:16;99991.91;;;4.90;53.26
69796;BME280;57073;45.650;9.612;2024-01-25T00:44:17;99996.69;;;4.79;53.15
69796;BME280;57073;45.650;9.612;2024-01-25T00:49:18;99990.88;;;4.76;53.29
69796;BME280;57073;45.650;9.612;2024-01-25T00:54:19;99974.94;;;4.82;52.70
69796;BME280;57073;45.650;9.612;2024-01-25T00:59:19;99987.72;;;4.34;53.29
69796;BME280;57073;45.650;9.612;2024-01-25T01:04:20;99975.69;;;4.38;53.52
69796;BME280;57073;45.650;9.612;2024-01-25T01:09:21;99988.56;;;4.58;52.55
69796;BME280;57073;45.650;9.612;2024-01-25T01:14:21;100001.25;;;4.56;53.08
69796;BME280;57073;45.650;9.612;2024-01-25T01:19:22;99997.84;;;4.47;53.16
69796;BME280;57073;45.650;9.612;2024-01-25T01:24:22;100002.16;;;4.25;54.77
69796;BME280;57073;45.650;9.612;2024-01-25T01:29:22;100014.69;;;4.24;55.70
69796;BME280;57073;45.650;9.612;2024-01-25T01:34:23;100026.16;;;4.25;54.90
69796;BME280;57073;45.650;9.612;2024-01-25T01:39:23;100026.53;;;3.99;56.77
69796;BME280;57073;45.650;9.612;2024-01-25T01:44:23;100033.28;;;4.09;57.09
69796;BME280;57073;45.650;9.612;2024-01-25T01:49:24;100029.31;;;4.05;57.98
69796;BME280;57073;45.650;9.612;2024-01-25T01:54:24;100030.19;;;3.98;59.36
69796;BME280;57073;45.650;9.612;2024-01-25T01:59:25;100024.63;;;4.07;59.45
69796;BME280;57073;45.650;9.612;2024-01-25T02:04:26;100015.44;;;4.10;59.56
69796;BME280;57073;45.650;9.612;2024-01-25T02:09:26;100017.03;;;4.19;59.70
69796;BME280;57073;45.650;9.612;2024-01-25T02:14:28;100021.59;;;4.10;59.98
69796;BME280;57073;45.650;9.612;2024-01-25T02:19:28;100010.63;;;4.28;59.42
69796;BME280;57073;45.650;9.612;2024-01-25T02:24:29;100019.66;;;4.27;58.81
69796;BME280;57073;45.650;9.612;2024-01-25T02:29:29;100018.06;;;4.18;58.61
69796;BME280;57073;45.650;9.612;2024-01-25T02:34:29;100015.59;;;4.08;58.68
69796;BME280;57073;45.650;9.612;2024-01-25T02:39:30;100001.78;;;3.82;58.51
69796;BME280;57073;45.650;9.612;2024-01-25T02:44:32;100006.38;;;3.96;60.39
69796;BME280;57073;45.650;9.612;2024-01-25T02:49:33;100008.94;;;4.13;60.45
69796;BME280;57073;45.650;9.612;2024-01-25T02:54:36;100007.59;;;4.08;59.69
69796;BME280;57073;45.650;9.612;2024-01-25T02:59:37;99992.19;;;4.19;58.29
69796;BME280;57073;45.650;9.612;2024-01-25T03:04:37;99989.94;;;4.07;58.27
69796;BME280;57073;45.650;9.612;2024-01-25T03:09:37;99992.75;;;3.83;59.71
69796;BME280;57073;45.650;9.612;2024-01-25T03:14:38;99977.41;;;3.85;60.33
69796;BME280;57073;45.650;9.612;2024-01-25T03:19:38;99968.88;;;3.89;59.99
69796;BME280;57073;45.650;9.612;2024-01-25T03:24:39;99981.31;;;3.97;60.37
69796;BME280;57073;45.650;9.612;2024-01-25T03:29:43;99961.44;;;3.77;60.32
69796;BME280;57073;45.650;9.612;2024-01-25T03:34:43;99967.19;;;3.65;59.32
69796;BME280;57073;45.650;9.612;2024-01-25T03:39:44;99974.50;;;3.63;60.76
69796;BME280;57073;45.650;9.612;2024-01-25T03:44:44;99968.44;;;3.78;60.53
69796;BME280;57073;45.650;9.612;2024-01-25T03:49:46;99976.81;;;3.75;61.34
69796;BME280;57073;45.650;9.612;2024-01-25T03:54:46;99965.25;;;3.51;60.03
69796;BME280;57073;45.650;9.612;2024-01-25T03:59:46;99974.81;;;3.37;60.71
69796;BME280;57073;45.650;9.612;2024-01-25T04:04:47;99975.38;;;3.56;59.34
69796;BME280;57073;45.650;9.612;2024-01-25T04:09:47;99985.78;;;3.42;60.36
69796;BME280;57073;45.650;9.612;2024-01-25T04:14:47;99975.72;;;3.52;60.81
69796;BME280;57073;45.650;9.612;2024-01-25T04:19:48;99975.38;;;3.56;60.65
69796;BME280;57073;45.650;9.612;2024-01-25T04:24:48;99970.06;;;3.56;59.76
69796;BME280;57073;45.650;9.612;2024-01-25T04:29:49;99958.66;;;3.39;60.44
69796;BME280;57073;45.650;9.612;2024-01-25T04:34:50;99973.63;;;3.40;61.65
69796;BME280;57073;45.650;9.612;2024-01-25T04:39:50;99975.03;;;3.27;61.03
69796;BME280;57073;45.650;9.612;2024-01-25T04:44:50;99982.59;;;3.47;60.53
69796;BME280;57073;45.650;9.612;2024-01-25T04:49:51;99970.50;;;3.67;61.01
69796;BME280;57073;45.650;9.612;2024-01-25T04:54:51;99971.63;;;3.42;59.67
69796;BME280;57073;45.650;9.612;2024-01-25T04:59:51;99962.28;;;3.46;58.85
69796;BME280;57073;45.650;9.612;2024-01-25T05:04:52;99959.94;;;3.43;58.97
69796;BME280;57073;45.650;9.612;2024-01-25T05:09:52;99970.34;;;3.29;59.33
69796;BME280;57073;45.650;9.612;2024-01-25T05:14:52;99975.56;;;3.54;61.56
69796;BME280;57073;45.650;9.612;2024-01-25T05:19:53;99979.03;;;3.63;60.24
69796;BME280;57073;45.650;9.612;2024-01-25T05:24:53;99981.03;;;3.61;61.11
69796;BME280;57073;45.650;9.612;2024-01-25T05:29:53;99998.50;;;3.63;59.05
69796;BME280;57073;45.650;9.612;2024-01-25T05:34:54;100005.50;;;3.33;59.86
69796;BME280;57073;45.650;9.612;2024-01-25T05:39:54;99999.28;;;3.41;60.61
69796;BME280;57073;45.650;9.612;2024-01-25T05:44:55;100000.91;;;3.50;60.86
69796;BME280;57073;45.650;9.612;2024-01-25T05:49:55;100010.81;;;3.72;60.79
69796;BME280;57073;45.650;9.612;2024-01-25T05:54:56;100011.56;;;3.58;60.57
69796;BME280;57073;45.650;9.612;2024-01-25T05:59:57;100018.59;;;3.51;62.17
69796;BME280;57073;45.650;9.612;2024-01-25T06:04:57;100010.75;;;3.49;61.65
69796;BME280;57073;45.650;9.612;2024-01-25T06:09:59;100013.75;;;3.46;61.82
69796;BME280;57073;45.650;9.612;2024-01-25T06:14:59;100023.97;;;3.35;60.06
69796;BME280;57073;45.650;9.612;2024-01-25T06:19:59;100021.66;;;3.23;61.06
69796;BME280;57073;45.650;9.612;2024-01-25T06:25:00;100032.69;;;3.20;59.95
69796;BME280;57073;45.650;9.612;2024-01-25T06:30:00;100032.03;;;3.10;59.81
69796;BME280;57073;45.650;9.612;2024-01-25T06:35:01;100038.88;;;3.04;60.09
69796;BME280;57073;45.650;9.612;2024-01-25T06:40:01;100042.84;;;2.92;60.23
69796;BME280;57073;45.650;9.612;2024-01-25T06:45:02;100041.19;;;2.83;60.98
69796;BME280;57073;45.650;9.612;2024-01-25T06:50:04;100056.69;;;2.79;61.93
69796;BME280;57073;45.650;9.612;2024-01-25T06:55:05;100057.00;;;2.76;61.58
69796;BME280;57073;45.650;9.612;2024-01-25T07:00:05;100048.34;;;2.74;61.23
69796;BME280;57073;45.650;9.612;2024-01-25T07:05:06;100063.00;;;2.70;62.27
69796;BME280;57073;45.650;9.612;2024-01-25T07:10:07;100048.34;;;2.74;61.58
69796;BME280;57073;45.650;9.612;2024-01-25T07:15:08;100042.38;;;2.72;61.84
69796;BME280;57073;45.650;9.612;2024-01-25T07:20:08;100045.38;;;2.77;61.63
69796;BME280;57073;45.650;9.612;2024-01-25T07:25:09;100052.84;;;2.73;61.99
69796;BME280;57073;45.650;9.612;2024-01-25T07:30:10;100057.66;;;2.94;61.84
69796;BME280;57073;45.650;9.612;2024-01-25T07:35:11;100043.50;;;3.10;61.96
69796;BME280;57073;45.650;9.612;2024-01-25T07:40:12;100053.31;;;3.18;61.08
69796;BME280;57073;45.650;9.612;2024-01-25T07:45:12;100053.59;;;3.40;60.77
69796;BME280;57073;45.650;9.612;2024-01-25T07:50:13;100047.47;;;3.79;60.27
69796;BME280;57073;45.650;9.612;2024-01-25T07:55:13;100056.00;;;4.05;60.53
69796;BME280;57073;45.650;9.612;2024-01-25T08:00:15;100063.69;;;4.32;59.75
69796;BME280;57073;45.650;9.612;2024-01-25T08:05:16;100059.88;;;4.72;59.14
69796;BME280;57073;45.650;9.612;2024-01-25T08:10:17;100053.88;;;5.23;57.96
69796;BME280;57073;45.650;9.612;2024-01-25T08:15:17;100056.66;;;5.30;57.42
69796;BME280;57073;45.650;9.612;2024-01-25T08:20:18;100060.34;;;5.88;56.45
69796;BME280;57073;45.650;9.612;2024-01-25T08:25:18;100069.19;;;6.04;56.03
69796;BME280;57073;45.650;9.612;2024-01-25T08:30:20;100064.81;;;6.54;55.01
69796;BME280;57073;45.650;9.612;2024-01-25T08:35:20;100066.50;;;6.83;55.04
69796;BME280;57073;45.650;9.612;2024-01-25T08:40:21;100069.34;;;7.03;54.11
69796;BME280;57073;45.650;9.612;2024-01-25T08:45:21;100079.50;;;7.36;53.22
69796;BME280;57073;45.650;9.612;2024-01-25T08:50:22;100072.75;;;7.18;52.71
69796;BME280;57073;45.650;9.612;2024-01-25T08:55:22;100058.44;;;7.33;52.45
69796;BME280;57073;45.650;9.612;2024-01-25T09:00:22;100052.09;;;7.12;51.96
69796;BME280;57073;45.650;9.612;2024-01-25T09:05:23;100056.81;;;7.39;51.64
69796;BME280;57073;45.650;9.612;2024-01-25T09:10:23;100062.91;;;7.54;51.82
69796;BME280;57073;45.650;9.612;2024-01-25T09:15:24;100075.66;;;7.17;51.24
69796;BME280;57073;45.650;9.612;2024-01-25T09:20:24;100072.19;;;7.51;51.76
69796;BME280;57073;45.650;9.612;2024-01-25T09:25:25;100071.44;;;7.08;51.90
69796;BME280;57073;45.650;9.612;2024-01-25T09:30:25;100066.78;;;6.95;52.86
69796;BME280;57073;45.650;9.612;2024-01-25T09:35:27;100064.63;;;7.05;52.98
69796;BME280;57073;45.650;9.612;2024-01-25T09:40:27;100087.16;;;6.89;53.10
69796;BME280;57073;45.650;9.612;2024-01-25T09:45:28;100085.13;;;6.27;53.49
69796;BME280;57073;45.650;9.612;2024-01-25T09:50:31;100103.44;;;6.23;54.06
69796;BME280;57073;45.650;9.612;2024-01-25T09:55:39;100120.88;;;6.19;54.00
69796;BME280;57073;45.650;9.612;2024-01-25T10:00:41;100129.38;;;6.08;55.04
69796;BME280;57073;45.650;9.612;2024-01-25T10:05:43;100130.34;;;5.85;54.48
69796;BME280;57073;45.650;9.612;2024-01-25T10:10:44;100130.38;;;6.21;54.59
69796;BME280;57073;45.650;9.612;2024-01-25T10:15:44;100139.88;;;6.24;54.63
69796;BME280;57073;45.650;9.612;2024-01-25T10:20:47;100135.59;;;5.93;55.19
69796;BME280;57073;45.650;9.612;2024-01-25T10:25:47;100157.91;;;6.30;55.52
69796;BME280;57073;45.650;9.612;2024-01-25T10:30:48;100139.09;;;6.09;55.92
69796;BME280;57073;45.650;9.612;2024-01-25T10:35:48;100141.19;;;6.13;56.14
69796;BME280;57073;45.650;9.612;2024-01-25T10:40:50;100142.19;;;6.27;55.79
69796;BME280;57073;45.650;9.612;2024-01-25T10:45:51;100140.84;;;6.01;56.01
69796;BME280;57073;45.650;9.612;2024-01-25T10:50:56;100145.88;;;6.26;56.07
69796;BME280;57073;45.650;9.612;2024-01-25T10:55:57;100147.72;;;6.26;56.80
69796;BME280;57073;45.650;9.612;2024-01-25T11:00:57;100144.97;;;6.19;56.88
69796;BME280;57073;45.650;9.612;2024-01-25T11:06:10;100144.09;;;6.33;57.83
69796;BME280;57073;45.650;9.612;2024-01-25T11:11:13;100149.06;;;6.51;57.71
69796;BME280;57073;45.650;9.612;2024-01-25T11:16:18;100167.75;;;6.66;56.35
69796;BME280;57073;45.650;9.612;2024-01-25T11:21:22;100153.72;;;6.64;55.92
69796;BME280;57073;45.650;9.612;2024-01-25T11:26:25;100160.25;;;6.76;55.73
69796;BME280;57073;45.650;9.612;2024-01-25T11:31:27;100164.88;;;6.83;56.23
69796;BME280;57073;45.650;9.612;2024-01-25T11:36:28;100151.91;;;6.86;55.55
69796;BME280;57073;45.650;9.612;2024-01-25T11:41:30;100164.09;;;6.89;56.27
69796;BME280;57073;45.650;9.612;2024-01-25T11:46:31;100143.22;;;6.84;55.50
69796;BME280;57073;45.650;9.612;2024-01-25T11:51:31;100156.56;;;6.99;54.48
69796;BME280;57073;45.650;9.612;2024-01-25T11:56:34;100153.38;;;7.10;54.94
69796;BME280;57073;45.650;9.612;2024-01-25T12:01:35;100141.50;;;6.98;55.29
69796;BME280;57073;45.650;9.612;2024-01-25T12:06:36;100143.03;;;7.07;54.92
69796;BME280;57073;45.650;9.612;2024-01-25T12:11:38;100128.59;;;6.87;54.97
69796;BME280;57073;45.650;9.612;2024-01-25T12:16:39;100133.16;;;6.86;55.88
69796;BME280;57073;45.650;9.612;2024-01-25T12:21:43;100130.69;;;6.70;55.80
69796;BME280;57073;45.650;9.612;2024-01-25T12:26:44;100127.56;;;6.66;56.45
69796;BME280;57073;45.650;9.612;2024-01-25T12:31:44;100137.28;;;6.89;56.23
69796;BME280;57073;45.650;9.612;2024-01-25T12:36:45;100111.19;;;7.26;56.01
69796;BME280;57073;45.650;9.612;2024-01-25T12:41:45;100113.47;;;7.29;56.07
69796;BME280;57073;45.650;9.612;2024-01-25T12:46:46;100113.84;;;7.47;56.03
69796;BME280;57073;45.650;9.612;2024-01-25T12:51:46;100127.38;;;7.32;56.62
69796;BME280;57073;45.650;9.612;2024-01-25T12:56:46;100124.56;;;7.47;57.36
69796;BME280;57073;45.650;9.612;2024-01-25T13:01:47;100110.59;;;7.59;56.46
69796;BME280;57073;45.650;9.612;2024-01-25T13:06:47;100096.41;;;7.65;56.88
69796;BME280;57073;45.650;9.612;2024-01-25T13:11:48;100112.59;;;7.78;56.20
69796;BME280;57073;45.650;9.612;2024-01-25T13:16:48;100094.00;;;7.77;56.25
69796;BME280;57073;45.650;9.612;2024-01-25T13:21:49;100097.56;;;7.90;55.92
69796;BME280;57073;45.650;9.612;2024-01-25T13:26:49;100110.19;;;7.97;55.79
69796;BME280;57073;45.650;9.612;2024-01-25T13:31:49;100109.31;;;7.83;56.54
69796;BME280;57073;45.650;9.612;2024-01-25T13:36:50;100118.94;;;8.12;56.01
69796;BME280;57073;45.650;9.612;2024-01-25T13:41:50;100116.03;;;8.07;56.17
69796;BME280;57073;45.650;9.612;2024-01-25T13:46:50;100116.22;;;7.99;55.72
69796;BME280;57073;45.650;9.612;2024-01-25T13:51:51;100113.28;;;7.93;55.93
69796;BME280;57073;45.650;9.612;2024-01-25T13:56:51;100111.03;;;7.97;55.73
69796;BME280;57073;45.650;9.612;2024-01-25T14:01:52;100113.38;;;8.13;55.96
69796;BME280;57073;45.650;9.612;2024-01-25T14:06:52;100114.31;;;7.92;55.43
69796;BME280;57073;45.650;9.612;2024-01-25T14:11:53;100112.13;;;8.16;55.31
69796;BME280;57073;45.650;9.612;2024-01-25T14:16:53;100113.38;;;8.13;55.72
69796;BME280;57073;45.650;9.612;2024-01-25T14:21:54;100109.69;;;8.21;55.53
69796;BME280;57073;45.650;9.612;2024-01-25T14:26:54;100120.53;;;8.55;54.64
69796;BME280;57073;45.650;9.612;2024-01-25T14:31:55;100119.66;;;8.34;55.25
69796;BME280;57073;45.650;9.612;2024-01-25T14:36:55;100125.44;;;8.38;55.42
69796;BME280;57073;45.650;9.612;2024-01-25T14:41:55;100136.16;;;8.24;55.11
69796;BME280;57073;45.650;9.612;2024-01-25T14:46:56;100125.06;;;8.47;55.04
69796;BME280;57073;45.650;9.612;2024-01-25T14:51:59;100123.03;;;8.49;54.60
69796;BME280;57073;45.650;9.612;2024-01-25T14:56:59;100112.63;;;8.40;55.17
69796;BME280;57073;45.650;9.612;2024-01-25T15:02:00;100125.69;;;8.56;54.72
69796;BME280;57073;45.650;9.612;2024-01-25T15:07:00;100123.84;;;8.50;54.98
69796;BME280;57073;45.650;9.612;2024-01-25T15:12:01;100114.78;;;8.64;55.40
69796;BME280;57073;45.650;9.612;2024-01-25T15:17:01;100117.25;;;8.73;54.45
69796;BME280;57073;45.650;9.612;2024-01-25T15:22:02;100118.94;;;8.74;54.51
69796;BME280;57073;45.650;9.612;2024-01-25T15:27:02;100118.94;;;8.74;54.52
69796;BME280;57073;45.650;9.612;2024-01-25T15:32:03;100120.66;;;8.95;53.95
69796;BME280;57073;45.650;9.612;2024-01-25T15:37:03;100117.91;;;8.88;54.01
69796;BME280;57073;45.650;9.612;2024-01-25T15:42:04;100111.06;;;8.85;54.08
69796;BME280;57073;45.650;9.612;2024-01-25T15:47:04;100112.72;;;8.80;53.58
69796;BME280;57073;45.650;9.612;2024-01-25T15:52:05;100108.16;;;8.67;53.99
69796;BME280;57073;45.650;9.612;2024-01-25T15:57:05;100114.81;;;8.84;53.58
69796;BME280;57073;45.650;9.612;2024-01-25T16:02:08;100110.25;;;8.85;54.21
69796;BME280;57073;45.650;9.612;2024-01-25T16:07:09;100099.88;;;8.68;53.48
69796;BME280;57073;45.650;9.612;2024-01-25T16:12:10;100104.72;;;8.93;53.87
69796;BME280;57073;45.650;9.612;2024-01-25T16:17:10;100116.50;;;8.92;53.50
69796;BME280;57073;45.650;9.612;2024-01-25T16:22:14;100122.03;;;8.77;54.48
69796;BME280;57073;45.650;9.612;2024-01-25T16:27:14;100123.84;;;8.63;54.46
69796;BME280;57073;45.650;9.612;2024-01-25T16:32:15;100118.06;;;8.53;54.73
69796;BME280;57073;45.650;9.612;2024-01-25T16:37:15;100112.69;;;8.53;55.10
69796;BME280;57073;45.650;9.612;2024-01-25T16:42:17;100115.88;;;8.22;55.77
69796;BME280;57073;45.650;9.612;2024-01-25T16:47:18;100107.16;;;8.06;56.01
69796;BME280;57073;45.650;9.612;2024-01-25T16:52:20;100117.69;;;8.08;56.39
69796;BME280;57073;45.650;9.612;2024-01-25T16:57:20;100114.25;;;8.21;55.58
69796;BME280;57073;45.650;9.612;2024-01-25T17:02:20;100111.25;;;7.96;56.06
69796;BME280;57073;45.650;9.612;2024-01-25T17:07:21;100109.03;;;7.71;57.47
69796;BME280;57073;45.650;9.612;2024-01-25T17:12:21;100115.22;;;7.65;56.95
69796;BME280;57073;45.650;9.612;2024-01-25T17:17:21;100122.06;;;7.39;58.64
69796;BME280;57073;45.650;9.612;2024-01-25T17:22:22;100118.53;;;7.39;57.74
69796;BME280;57073;45.650;9.612;2024-01-25T17:27:22;100118.03;;;7.28;58.80
69796;BME280;57073;45.650;9.612;2024-01-25T17:32:23;100127.69;;;7.23;59.21
69796;BME280;57073;45.650;9.612;2024-01-25T17:37:23;100117.28;;;7.13;58.73
69796;BME280;57073;45.650;9.612;2024-01-25T17:42:23;100113.84;;;7.19;58.92
69796;BME280;57073;45.650;9.612;2024-01-25T17:47:24;100120.56;;;7.08;58.62
69796;BME280;57073;45.650;9.612;2024-01-25T17:52:24;100122.47;;;6.93;59.29
69796;BME280;57073;45.650;9.612;2024-01-25T17:57:25;100127.84;;;6.93;59.35
69796;BME280;57073;45.650;9.612;2024-01-25T18:02:25;100136.84;;;6.85;59.42
69796;BME280;57073;45.650;9.612;2024-01-25T18:07:25;100138.72;;;6.70;60.10
69796;BME280;57073;45.650;9.612;2024-01-25T18:12:26;100147.81;;;6.69;60.10
69796;BME280;57073;45.650;9.612;2024-01-25T18:17:26;100135.59;;;6.45;60.30
69796;BME280;57073;45.650;9.612;2024-01-25T18:22:27;100129.53;;;6.36;60.43
69796;BME280;57073;45.650;9.612;2024-01-25T18:27:27;100128.69;;;6.35;60.85
69796;BME280;57073;45.650;9.612;2024-01-25T18:32:28;100128.88;;;6.34;60.74
69796;BME280;57073;45.650;9.612;2024-01-25T18:37:28;100134.63;;;6.31;60.34
69796;BME280;57073;45.650;9.612;2024-01-25T18:42:28;100121.31;;;6.23;61.09
69796;BME280;57073;45.650;9.612;2024-01-25T18:47:29;100130.03;;;6.10;61.26
69796;BME280;57073;45.650;9.612;2024-01-25T18:52:30;100124.88;;;5.93;61.44
69796;BME280;57073;45.650;9.612;2024-01-25T18:57:30;100122.75;;;6.04;60.81
69796;BME280;57073;45.650;9.612;2024-01-25T19:02:32;100116.13;;;5.99;61.59
69796;BME280;57073;45.650;9.612;2024-01-25T19:07:37;100114.25;;;6.00;60.97
69796;BME280;57073;45.650;9.612;2024-01-25T19:12:37;100108.16;;;5.91;60.73
69796;BME280;57073;45.650;9.612;2024-01-25T19:17:38;100102.72;;;5.85;60.87
69796;BME280;57073;45.650;9.612;2024-01-25T19:22:38;100106.41;;;5.98;60.33
69796;BME280;57073;45.650;9.612;2024-01-25T19:27:39;100095.94;;;6.18;59.98
69796;BME280;57073;45.650;9.612;2024-01-25T19:32:39;100093.78;;;5.92;60.47
69796;BME280;57073;45.650;9.612;2024-01-25T19:37:39;100096.34;;;6.00;59.63
69796;BME280;57073;45.650;9.612;2024-01-25T19:42:40;100084.59;;;6.16;59.56
69796;BME280;57073;45.650;9.612;2024-01-25T19:47:40;100089.41;;;6.21;59.37
69796;BME280;57073;45.650;9.612;2024-01-25T19:52:41;100084.53;;;6.31;58.55
69796;BME280;57073;45.650;9.612;2024-01-25T19:57:43;100092.22;;;6.34;58.16
69796;BME280;57073;45.650;9.612;2024-01-25T20:02:46;100091.06;;;6.44;57.73
69796;BME280;57073;45.650;9.612;2024-01-25T20:07:46;100097.56;;;6.34;57.70
69796;BME280;57073;45.650;9.612;2024-01-25T20:12:47;100090.25;;;6.43;57.67
69796;BME280;57073;45.650;9.612;2024-01-25T20:17:47;100075.94;;;6.36;57.56
69796;BME280;57073;45.650;9.612;2024-01-25T20:22:47;100072.41;;;6.35;57.59
69796;BME280;57073;45.650;9.612;2024-01-25T20:27:48;100071.69;;;6.42;57.23
69796;BME280;57073;45.650;9.612;2024-01-25T20:32:48;100075.78;;;6.37;57.22
69796;BME280;57073;45.650;9.612;2024-01-25T20:37:49;100080.72;;;6.40;56.78
69796;BME280;57073;45.650;9.612;2024-01-25T20:42:50;100083.13;;;6.35;56.76
69796;BME280;57073;45.650;9.612;2024-01-25T20:47:50;100084.81;;;6.36;56.91
69796;BME280;57073;45.650;9.612;2024-01-25T20:52:51;100085.72;;;6.44;57.00
69796;BME280;57073;45.650;9.612;2024-01-25T20:57:51;100082.66;;;6.47;56.86
69796;BME280;57073;45.650;9.612;2024-01-25T21:02:52;100087.84;;;6.48;56.80
69796;BME280;57073;45.650;9.612;2024-01-25T21:07:52;100092.34;;;6.48;56.52
69796;BME280;57073;45.650;9.612;2024-01-25T21:12:53;100095.03;;;6.48;57.01
69796;BME280;57073;45.650;9.612;2024-01-25T21:17:54;100104.34;;;6.52;56.37
69796;BME280;57073;45.650;9.612;2024-01-25T21:22:54;100104.91;;;6.47;56.33
69796;BME280;57073;45.650;9.612;2024-01-25T21:27:55;100107.41;;;6.49;56.51
69796;BME280;57073;45.650;9.612;2024-01-25T21:32:55;100101.78;;;6.44;56.79
69796;BME280;57073;45.650;9.612;2024-01-25T21:37:55;100100.09;;;6.43;56.63
69796;BME280;57073;45.650;9.612;2024-01-25T21:42:56;100096.47;;;6.29;56.42
69796;BME280;57073;45.650;9.612;2024-01-25T21:47:56;100091.50;;;6.26;57.00
69796;BME280;57073;45.650;9.612;2024-01-25T21:52:57;100083.59;;;6.02;57.36
69796;BME280;57073;45.650;9.612;2024-01-25T21:57:57;100090.84;;;5.87;57.80
69796;BME280;57073;45.650;9.612;2024-01-25T22:02:57;100086.66;;;5.85;57.15
69796;BME280;57073;45.650;9.612;2024-01-25T22:07:58;100078.34;;;5.94;57.55
69796;BME280;57073;45.650;9.612;2024-01-25T22:12:58;100082.63;;;5.74;57.31
69796;BME280;57073;45.650;9.612;2024-01-25T22:17:59;100089.06;;;5.94;57.46
69796;BME280;57073;45.650;9.612;2024-01-25T22:22:59;100071.97;;;6.10;56.68
69796;BME280;57073;45.650;9.612;2024-01-25T22:28:01;100072.28;;;6.22;56.67
69796;BME280;57073;45.650;9.612;2024-01-25T22:33:01;100076.88;;;6.07;56.91
69796;BME280;57073;45.650;9.612;2024-01-25T22:38:02;100078.69;;;6.06;56.79
69796;BME280;57073;45.650;9.612;2024-01-25T22:43:03;100076.38;;;6.18;56.46
69796;BME280;57073;45.650;9.612;2024-01-25T22:48:03;100072.50;;;6.06;57.05
69796;BME280;57073;45.650;9.612;2024-01-25T22:53:04;100080.94;;;5.88;57.57
69796;BME280;57073;45.650;9.612;2024-01-25T22:58:04;100081.44;;;5.76;57.56
69796;BME280;57073;45.650;9.612;2024-01-25T23:03:05;100079.69;;;5.69;57.32
69796;BME280;57073;45.650;9.612;2024-01-25T23:08:06;100081.50;;;5.53;57.60
69796;BME280;57073;45.650;9.612;2024-01-25T23:13:06;100063.72;;;5.46;58.18
69796;BME280;57073;45.650;9.612;2024-01-25T23:18:07;100074.25;;;5.47;58.18
69796;BME280;57073;45.650;9.612;2024-01-25T23:23:07;100090.91;;;5.34;58.89
69796;BME280;57073;45.650;9.612;2024-01-25T23:28:08;100072.00;;;5.36;58.42
69796;BME280;57073;45.650;9.612;2024-01-25T23:33:08;100069.34;;;5.51;57.73
69796;BME280;57073;45.650;9.612;2024-01-25T23:38:09;100064.13;;;5.19;57.85
69796;BME280;57073;45.650;9.612;2024-01-25T23:43:09;100062.81;;;5.15;58.54
69796;BME280;57073;45.650;9.612;2024-01-25T23:48:09;100054.69;;;4.94;58.59
69796;BME280;57073;45.650;9.612;2024-01-25T23:53:10;100063.25;;;4.89;58.63
69796;BME280;57073;45.650;9.612;2024-01-25T23:58:10;100066.22;;;4.94;59.19
